»·PEaware :: N608CD KSAN-KSFO

N608CD :: KSAN-KSFO

FLIGHT INFORMATION

Flight Status: Arrived
Operator: Privately registered:
United States
More flights under this callsign
Pilot: Daniel L. (27195)
Aircraft: CESSNA T210 TURBO CENTURION
(T210)
More flights by this aircraft type
Origin: KSAN San Diego Intl-Lindbergh
United States
Destination: KSFO San Francisco Intl
United States
More flights between these airports :: More routes between these airports
Route: +KSAN OCN DANAH SLI VNY SNS OSI KSFO
File this flight plan on PilotEdge
Remarks:
Altitude:
(Current/Filed)
8,500ft
Speed:
(Current/Filed)
150kts
Departed: 25-Apr-20 12:32 PM
Arrived: 25-Apr-20 03:36 PM
Distance/Time
Traveled:
388nm/3:04
Distance/Time
To Go:
Arrived

Flight Plot

Page will automatically refresh every two minutes.

Flight plan parsing failed; only flown route is shown


Map Options




Map Legend


Flown Route
Filed Route
Departure Airport
Arrival Airport
Navaid (VOR, NDB)
Fix

Horizontal Profiles

Position Reports

Time Latitude Longitude Heading Altitude Ground
Speed
25-Apr-20 12:10 32.732421 -117.176641 194 22ft 0kts
25-Apr-20 12:11 32.732421 -117.176641 194 22ft 0kts
25-Apr-20 12:12 32.732421 -117.176641 194 22ft 0kts
25-Apr-20 12:13 32.732421 -117.176641 194 22ft 0kts
25-Apr-20 12:14 32.732421 -117.176641 194 22ft 0kts
25-Apr-20 12:15 32.732421 -117.176641 194 22ft 0kts
25-Apr-20 12:16 32.732421 -117.176641 194 22ft 0kts
25-Apr-20 12:17 32.732421 -117.176641 194 22ft 0kts
25-Apr-20 12:18 32.732421 -117.176641 194 22ft 0kts
25-Apr-20 12:19 32.732421 -117.176641 194 22ft 0kts
25-Apr-20 12:20 32.732421 -117.176641 194 22ft 0kts
25-Apr-20 12:21 32.732421 -117.176641 194 22ft 0kts
25-Apr-20 12:22 32.732421 -117.176641 194 22ft 0kts
25-Apr-20 12:23 32.732421 -117.176641 194 22ft 0kts
25-Apr-20 12:24 32.732421 -117.176641 194 22ft 0kts
25-Apr-20 12:25 32.732324 -117.176746 229 21ft 0kts
25-Apr-20 12:26 32.732303 -117.176764 216 21ft 0kts
25-Apr-20 12:27 32.732303 -117.176764 217 21ft 0kts
25-Apr-20 12:28 32.731240 -117.176080 106 20ft 10kts
25-Apr-20 12:29 32.731082 -117.175718 127 21ft 0kts
25-Apr-20 12:30 32.730191 -117.175768 285 20ft 0kts
25-Apr-20 12:31 32.736410 -117.193121 309 418ft 104kts
25-Apr-20 12:32 32.763334 -117.215905 320 1150ft 128kts
25-Apr-20 12:33 32.797080 -117.228644 3 1752ft 147kts
25-Apr-20 12:34 32.836255 -117.236652 337 2464ft 142kts
25-Apr-20 12:35 32.872256 -117.252282 336 3295ft 134kts
25-Apr-20 12:37 32.906342 -117.267447 336 4183ft 130kts
25-Apr-20 12:38 32.944413 -117.284519 334 4322ft 155kts
25-Apr-20 12:39 32.985050 -117.302704 336 4326ft 157kts
25-Apr-20 12:40 33.026105 -117.321146 335 4331ft 158kts
25-Apr-20 12:41 33.065299 -117.338718 334 5103ft 126kts
25-Apr-20 12:42 33.097309 -117.353299 335 6068ft 124kts
25-Apr-20 12:43 33.129851 -117.367980 334 6942ft 126kts
25-Apr-20 12:44 33.162835 -117.382886 335 7796ft 127kts
25-Apr-20 12:45 33.196959 -117.398338 336 8337ft 147kts
25-Apr-20 12:46 33.237864 -117.417037 331 8351ft 155kts
25-Apr-20 12:47 33.269605 -117.451338 313 8353ft 152kts
25-Apr-20 12:48 33.299634 -117.486888 314 8354ft 150kts
25-Apr-20 12:49 33.329909 -117.522315 314 8365ft 150kts
25-Apr-20 12:50 33.360205 -117.557632 314 8359ft 152kts
25-Apr-20 12:51 33.390408 -117.592887 314 8362ft 151kts
25-Apr-20 12:51 33.415828 -117.622624 314 8367ft 151kts
25-Apr-20 12:53 33.451471 -117.664328 313 8360ft 151kts
25-Apr-20 12:54 33.482500 -117.700703 315 8366ft 151kts
25-Apr-20 12:54 33.508590 -117.731297 312 8360ft 151kts
25-Apr-20 12:55 33.540122 -117.768345 314 8347ft 152kts
25-Apr-20 12:56 33.571418 -117.805184 312 8355ft 151kts
25-Apr-20 12:58 33.608055 -117.848295 312 8353ft 151kts
25-Apr-20 12:58 33.634131 -117.879017 314 8356ft 152kts
25-Apr-20 12:59 33.664622 -117.914979 313 8353ft 151kts
25-Apr-20 13:00 33.695906 -117.951916 313 8358ft 151kts
25-Apr-20 13:01 33.727149 -117.988862 315 8357ft 152kts
25-Apr-20 13:02 33.758293 -118.025704 313 8355ft 151kts
25-Apr-20 13:03 33.789667 -118.061585 319 8365ft 152kts
25-Apr-20 13:04 33.821956 -118.094917 317 8364ft 151kts
25-Apr-20 13:05 33.854023 -118.128547 314 8368ft 152kts
25-Apr-20 13:06 33.887628 -118.159797 321 8360ft 152kts
25-Apr-20 13:07 33.920513 -118.191875 317 8362ft 151kts
25-Apr-20 13:08 33.952597 -118.225161 317 8374ft 151kts
25-Apr-20 13:09 33.984571 -118.258401 317 8360ft 151kts
25-Apr-20 13:10 34.016700 -118.291767 317 8369ft 151kts
25-Apr-20 13:11 34.048841 -118.325133 317 8366ft 152kts
25-Apr-20 13:12 34.081327 -118.358808 318 8374ft 151kts
25-Apr-20 13:13 34.113535 -118.391917 319 8367ft 151kts
25-Apr-20 13:14 34.150136 -118.420776 320 8370ft 154kts
25-Apr-20 13:15 34.184490 -118.453315 317 8372ft 155kts
25-Apr-20 13:16 34.217945 -118.486651 316 8372ft 155kts
25-Apr-20 13:17 34.248112 -118.522197 312 8364ft 155kts
25-Apr-20 13:18 34.277287 -118.557842 311 8363ft 155kts
25-Apr-20 13:19 34.306847 -118.593907 311 8369ft 154kts
25-Apr-20 13:20 34.336473 -118.630134 311 8362ft 155kts
25-Apr-20 13:21 34.366219 -118.666488 311 8375ft 155kts
25-Apr-20 13:22 34.396062 -118.703017 311 8362ft 155kts
25-Apr-20 13:23 34.425916 -118.739621 312 8364ft 158kts
25-Apr-20 13:24 34.456286 -118.776866 311 8368ft 158kts
25-Apr-20 13:25 34.486790 -118.814373 311 8386ft 159kts
25-Apr-20 13:26 34.517430 -118.852025 310 8398ft 162kts
25-Apr-20 13:27 34.548676 -118.890502 310 8377ft 162kts
25-Apr-20 13:28 34.580017 -118.929134 310 8372ft 162kts
25-Apr-20 13:29 34.611201 -118.967604 310 8378ft 162kts
25-Apr-20 13:30 34.642536 -119.006345 310 8376ft 162kts
25-Apr-20 13:31 34.672833 -119.043786 310 8366ft 163kts
25-Apr-20 13:32 34.702147 -119.080083 311 8386ft 162kts
25-Apr-20 13:33 34.731848 -119.116912 311 8380ft 162kts
25-Apr-20 13:34 34.762266 -119.154657 311 8369ft 162kts
25-Apr-20 13:35 34.792421 -119.192136 310 8380ft 163kts
25-Apr-20 13:36 34.822860 -119.229970 310 8376ft 162kts
25-Apr-20 13:37 34.853284 -119.267850 311 8377ft 162kts
25-Apr-20 13:38 34.884285 -119.306519 310 8377ft 163kts
25-Apr-20 13:39 34.915213 -119.345093 312 8388ft 162kts
25-Apr-20 13:40 34.946430 -119.384091 310 8385ft 162kts
25-Apr-20 13:41 34.977728 -119.423261 310 8371ft 163kts
25-Apr-20 13:42 35.009055 -119.462487 310 8378ft 162kts
25-Apr-20 13:43 35.040058 -119.501364 311 8377ft 162kts
25-Apr-20 13:44 35.071238 -119.540539 310 8372ft 162kts
25-Apr-20 13:45 35.102472 -119.579771 311 8379ft 162kts
25-Apr-20 13:46 35.133453 -119.618772 310 8375ft 161kts
25-Apr-20 13:47 35.164315 -119.657681 310 8378ft 158kts
25-Apr-20 13:48 35.194808 -119.696126 310 8373ft 157kts
25-Apr-20 13:49 35.225691 -119.735123 310 8373ft 158kts
25-Apr-20 13:50 35.256456 -119.773979 309 8388ft 157kts
25-Apr-20 13:51 35.287166 -119.812869 311 8380ft 157kts
25-Apr-20 13:52 35.317581 -119.851418 310 8380ft 159kts
25-Apr-20 13:53 35.348220 -119.890216 309 8380ft 157kts
25-Apr-20 13:54 35.378681 -119.928962 310 8376ft 158kts
25-Apr-20 13:55 35.409448 -119.968068 309 8374ft 157kts
25-Apr-20 13:56 35.440342 -120.007345 310 8370ft 158kts
25-Apr-20 13:57 35.470610 -120.045979 310 8389ft 159kts
25-Apr-20 13:58 35.500925 -120.084642 310 8385ft 161kts
25-Apr-20 13:59 35.531467 -120.123667 309 8375ft 162kts
25-Apr-20 14:00 35.561920 -120.162598 310 8382ft 161kts
25-Apr-20 14:01 35.592216 -120.201420 310 8374ft 162kts
25-Apr-20 14:02 35.622556 -120.240268 310 8376ft 162kts
25-Apr-20 14:03 35.653193 -120.279591 310 8384ft 162kts
25-Apr-20 14:04 35.684395 -120.319671 310 8375ft 161kts
25-Apr-20 14:05 35.715531 -120.359743 309 8391ft 162kts
25-Apr-20 14:06 35.745925 -120.398880 309 8372ft 162kts
25-Apr-20 14:07 35.775105 -120.436508 310 8382ft 158kts
25-Apr-20 14:08 35.804036 -120.473885 311 8381ft 159kts
25-Apr-20 14:09 35.832944 -120.511240 310 8384ft 158kts
25-Apr-20 14:10 35.861814 -120.548599 310 8379ft 159kts
25-Apr-20 14:11 35.890321 -120.585539 310 8381ft 158kts
25-Apr-20 14:12 35.918334 -120.621873 310 8375ft 159kts
25-Apr-20 14:13 35.947189 -120.659361 308 8363ft 158kts
25-Apr-20 14:14 35.976680 -120.697689 308 8385ft 158kts
25-Apr-20 14:15 36.006759 -120.736846 309 8375ft 159kts
25-Apr-20 14:16 36.037150 -120.776423 310 8382ft 158kts
25-Apr-20 14:17 36.067804 -120.816414 310 8376ft 158kts
25-Apr-20 14:18 36.098654 -120.856723 309 8374ft 158kts
25-Apr-20 14:19 36.129663 -120.897251 309 8368ft 159kts
25-Apr-20 14:20 36.160726 -120.937940 309 8379ft 158kts
25-Apr-20 14:21 36.192123 -120.979087 309 8373ft 158kts
25-Apr-20 14:22 36.223677 -121.020534 308 8375ft 159kts
25-Apr-20 14:23 36.255024 -121.061755 309 8381ft 158kts
25-Apr-20 14:24 36.286209 -121.102741 309 8371ft 158kts
25-Apr-20 14:25 36.317444 -121.143907 310 8382ft 158kts
25-Apr-20 14:26 36.336083 -121.168485 308 8372ft 157kts
25-Apr-20 14:27 36.336083 -121.168485 308 8372ft 157kts
25-Apr-20 14:28 36.336083 -121.168485 308 8372ft 157kts
25-Apr-20 14:29 36.336083 -121.168485 308 8372ft 157kts
25-Apr-20 14:32 32.732421 -117.176641 194 21ft 0kts
25-Apr-20 14:33 32.732421 -117.176641 194 21ft 0kts
25-Apr-20 14:34 32.732421 -117.176641 194 21ft 0kts
25-Apr-20 14:36 32.732421 -117.176641 194 21ft 0kts
25-Apr-20 14:37 32.732421 -117.176641 194 21ft 0kts
25-Apr-20 14:38 36.661472 -121.616513 31 70ft 0kts
25-Apr-20 14:39 36.661472 -121.616513 31 70ft 0kts
25-Apr-20 15:04 36.719235 -121.658320 318 4372ft 147kts
25-Apr-20 15:05 36.755431 -121.691493 320 4377ft 157kts
25-Apr-20 15:06 36.792801 -121.725703 318 4377ft 158kts
25-Apr-20 15:07 36.830149 -121.760001 319 4388ft 156kts
25-Apr-20 15:08 36.867039 -121.793912 319 4378ft 154kts
25-Apr-20 15:09 36.903670 -121.827620 319 4391ft 155kts
25-Apr-20 15:10 36.940404 -121.861344 318 4387ft 156kts
25-Apr-20 15:11 36.976913 -121.895118 319 4378ft 155kts
25-Apr-20 15:12 37.012981 -121.928492 318 4376ft 154kts
25-Apr-20 15:13 37.048559 -121.961393 320 4377ft 154kts
25-Apr-20 15:14 37.084078 -121.994347 318 4368ft 154kts
25-Apr-20 15:15 37.119495 -122.027294 319 4366ft 154kts
25-Apr-20 15:16 37.155012 -122.060223 319 4379ft 153kts
25-Apr-20 15:17 37.190458 -122.093063 319 4371ft 154kts
25-Apr-20 15:18 37.225526 -122.125646 319 4370ft 154kts
25-Apr-20 15:19 37.260301 -122.158052 319 4364ft 154kts
25-Apr-20 15:20 37.294706 -122.190055 318 3746ft 148kts
25-Apr-20 15:21 37.325595 -122.219922 319 3430ft 122kts
25-Apr-20 15:22 37.349561 -122.249536 295 3436ft 122kts
25-Apr-20 15:23 37.366361 -122.288362 292 3438ft 129kts
25-Apr-20 15:24 37.394481 -122.318506 352 3412ft 142kts
25-Apr-20 15:25 37.433100 -122.304485 0 3433ft 142kts
25-Apr-20 15:26 37.471271 -122.314249 339 3023ft 140kts
25-Apr-20 15:27 37.508013 -122.329404 338 2368ft 132kts
25-Apr-20 15:28 37.541381 -122.328783 71 1623ft 145kts
25-Apr-20 15:29 37.552989 -122.292728 56 1245ft 126kts
25-Apr-20 15:30 37.573150 -122.263560 1 700ft 97kts
25-Apr-20 15:31 37.587062 -122.287828 302 641ft 85kts
25-Apr-20 15:32 37.596738 -122.312744 291 637ft 81kts
25-Apr-20 15:33 37.606671 -122.337713 286 478ft 75kts
25-Apr-20 15:34 37.615489 -122.361524 290 15ft 50kts
25-Apr-20 15:35 37.616937 -122.367426 212 13ft 0kts
25-Apr-20 15:36 37.616937 -122.367426 212 13ft 0kts
25-Apr-20 15:37 37.614869 -122.369086 257 13ft 17kts
25-Apr-20 15:38 37.615476 -122.371060 303 14ft 0kts
25-Apr-20 15:39 37.617028 -122.374820 298 13ft 23kts
25-Apr-20 15:40 37.618747 -122.379877 284 13ft 10kts
25-Apr-20 15:41 37.618620 -122.381027 32 13ft 0kts
25-Apr-20 15:42 37.618620 -122.381027 32 13ft 0kts

Navigation Log

Ident Type
Flight plan parsing failed, navigation log unavailable